Time;durP1;ratioP1;P1;durP2;ratioP2;P2;SDS_P1;SDS_P2;PMS_P1;PMS_P2;Temp;Humidity;BMP_temperature;BMP_pressure;BME280_temperature;BME280_humidity;BME280_pressure;Samples;Min_cycle;Max_cycle;Signal;HPM_P1;HPM_P2
2023/10/20 00:00:45;;;;;;;;;;;12.20;99.90;;;;;;5084350;28;19924;-71
2023/10/20 00:03:13;;;;;;;;;;;12.20;99.90;;;;;;5084138;28;19933;-71
2023/10/20 00:05:40;;;;;;;;;;;12.20;99.90;;;;;;5083214;28;19956;-71
2023/10/20 00:08:07;;;;;;;;;;;12.10;99.90;;;;;;5083492;28;19921;-71
2023/10/20 00:10:35;;;;;;;;;;;12.20;99.90;;;;;;5083898;28;19924;-73
2023/10/20 00:13:02;;;;;;;;;;;12.20;99.90;;;;;;5083913;28;19929;-71
2023/10/20 00:15:29;;;;;;;;;;;12.20;99.90;;;;;;5082448;28;20166;-71
2023/10/20 00:17:55;;;;;;;;;;;12.10;99.90;;;;;;5083175;28;19936;-71
2023/10/20 00:20:23;;;;;;;;;;;12.10;99.90;;;;;;5083831;28;19921;-71
2023/10/20 00:22:50;;;;;;;;;;;12.10;99.90;;;;;;5083780;28;20007;-71
2023/10/20 00:25:17;;;;;;;;;;;12.10;99.90;;;;;;5082646;28;20183;-71
2023/10/20 00:27:43;;;;;;;;;;;12.10;99.90;;;;;;5083392;28;19956;-70
2023/10/20 00:30:11;;;;;;;;;;;12.10;99.90;;;;;;5083453;28;19920;-71
2023/10/20 00:32:39;;;;;;;;;;;12.10;99.90;;;;;;5083481;28;19990;-73
2023/10/20 00:35:07;;;;;;;;;;;12.00;99.90;;;;;;5083093;28;19927;-71
2023/10/20 00:37:35;;;;;;;;;;;12.10;99.90;;;;;;5083499;28;20160;-71
2023/10/20 00:40:07;;;;;;;;;;;12.00;99.90;;;;;;5083418;28;19984;-71
2023/10/20 00:42:34;;;;;;;;;;;12.00;99.90;;;;;;5083378;28;19928;-71
2023/10/20 00:45:00;;;;;;;;;;;12.00;99.90;;;;;;5082558;28;20078;-70
2023/10/20 00:47:27;;;;;;;;;;;12.00;99.90;;;;;;5083221;28;19920;-71
2023/10/20 00:49:57;;;;;;;;;;;12.00;99.90;;;;;;5082190;28;20923;-70
2023/10/20 00:52:24;;;;;;;;;;;12.10;99.90;;;;;;5083269;28;19921;-71
2023/10/20 00:54:52;;;;;;;;;;;12.00;99.90;;;;;;5081513;28;20249;-71
2023/10/20 00:57:19;;;;;;;;;;;12.00;99.90;;;;;;5082494;28;20262;-72
2023/10/20 00:59:46;;;;;;;;;;;12.00;99.90;;;;;;5083189;28;19952;-71
2023/10/20 01:02:12;;;;;;;;;;;12.00;99.90;;;;;;5082830;28;19921;-71
2023/10/20 01:04:39;;;;;;;;;;;12.10;99.90;;;;;;5082550;28;19963;-71
2023/10/20 01:07:06;;;;;;;;;;;12.00;99.90;;;;;;5082835;28;19959;-71
2023/10/20 01:09:32;;;;;;;;;;;12.00;99.90;;;;;;5078266;28;19956;-70
2023/10/20 01:12:00;;;;;;;;;;;12.00;99.90;;;;;;5082699;28;19991;-71
2023/10/20 01:14:27;;;;;;;;;;;12.00;99.90;;;;;;5082657;28;19970;-71
2023/10/20 01:16:54;;;;;;;;;;;12.00;99.90;;;;;;5082196;28;20121;-71
2023/10/20 01:19:20;;;;;;;;;;;12.00;99.90;;;;;;5082392;28;19920;-70
2023/10/20 01:21:47;;;;;;;;;;;12.00;99.90;;;;;;5082676;28;20167;-72
2023/10/20 01:24:15;;;;;;;;;;;12.00;99.90;;;;;;5082813;28;19960;-71
2023/10/20 01:26:43;;;;;;;;;;;12.00;99.90;;;;;;5082378;28;19951;-71
2023/10/20 01:29:12;;;;;;;;;;;12.00;99.90;;;;;;5082489;28;20268;-71
2023/10/20 01:31:38;;;;;;;;;;;12.00;99.90;;;;;;5082754;28;20091;-71
2023/10/20 01:34:05;;;;;;;;;;;12.00;99.90;;;;;;5082478;28;19959;-71
2023/10/20 01:36:32;;;;;;;;;;;12.00;99.90;;;;;;5077519;28;19987;-71
2023/10/20 01:38:59;;;;;;;;;;;12.00;99.90;;;;;;5082391;28;20110;-71
2023/10/20 01:41:27;;;;;;;;;;;12.00;99.90;;;;;;5082579;28;19960;-71
2023/10/20 01:43:54;;;;;;;;;;;12.00;99.90;;;;;;5082505;28;20023;-70
2023/10/20 01:46:20;;;;;;;;;;;12.00;99.90;;;;;;5081831;28;19927;-71
2023/10/20 01:48:47;;;;;;;;;;;12.00;99.90;;;;;;5082165;28;19966;-70
2023/10/20 01:51:13;;;;;;;;;;;12.00;99.90;;;;;;5082542;28;19931;-70
2023/10/20 01:53:40;;;;;;;;;;;11.90;99.90;;;;;;5082388;28;19920;-71
2023/10/20 01:56:07;;;;;;;;;;;11.90;99.90;;;;;;5081857;28;19921;-71
2023/10/20 01:58:35;;;;;;;;;;;11.90;99.90;;;;;;5082696;28;19920;-71
2023/10/20 02:01:02;;;;;;;;;;;11.90;99.90;;;;;;5082455;28;19924;-71
2023/10/20 02:03:30;;;;;;;;;;;11.90;99.90;;;;;;5082189;28;19962;-71
2023/10/20 02:05:56;;;;;;;;;;;11.90;99.90;;;;;;5082296;28;19921;-71
2023/10/20 02:08:23;;;;;;;;;;;11.90;99.90;;;;;;5086266;28;19956;-71
2023/10/20 02:10:50;;;;;;;;;;;11.90;99.90;;;;;;5086210;28;19991;-70
2023/10/20 02:13:16;;;;;;;;;;;11.90;99.90;;;;;;5086315;28;19995;-70
2023/10/20 02:15:47;;;;;;;;;;;11.90;99.90;;;;;;5085892;28;19927;-71
2023/10/20 02:18:13;;;;;;;;;;;11.90;99.90;;;;;;5086385;28;19960;-70
2023/10/20 02:20:40;;;;;;;;;;;11.90;99.90;;;;;;5086487;28;19921;-71
2023/10/20 02:23:07;;;;;;;;;;;11.90;99.90;;;;;;5086125;28;19956;-71
2023/10/20 02:25:34;;;;;;;;;;;11.90;99.90;;;;;;5086091;28;19927;-71
2023/10/20 02:28:02;;;;;;;;;;;11.80;99.90;;;;;;5086288;28;19951;-71
2023/10/20 02:30:31;;;;;;;;;;;11.90;99.90;;;;;;5086177;28;19991;-71
2023/10/20 02:32:59;;;;;;;;;;;11.90;99.90;;;;;;5086081;28;19943;-71
2023/10/20 02:35:25;;;;;;;;;;;11.90;99.90;;;;;;5085279;28;19983;-72
2023/10/20 02:37:52;;;;;;;;;;;11.80;99.90;;;;;;5086091;28;19939;-71
2023/10/20 02:40:19;;;;;;;;;;;11.90;99.90;;;;;;5086296;28;19983;-71
2023/10/20 02:42:45;;;;;;;;;;;11.90;99.90;;;;;;5086366;28;20257;-71
2023/10/20 02:45:12;;;;;;;;;;;11.90;99.90;;;;;;5080509;28;19996;-71
2023/10/20 02:47:38;;;;;;;;;;;11.90;99.90;;;;;;5073053;28;19984;-71
2023/10/20 02:50:07;;;;;;;;;;;11.90;99.90;;;;;;5091128;28;20185;-71
2023/10/20 02:52:34;;;;;;;;;;;11.90;99.90;;;;;;5081974;28;19921;-71
2023/10/20 02:55:01;;;;;;;;;;;11.90;99.90;;;;;;5074652;28;19983;-71
2023/10/20 02:57:27;;;;;;;;;;;11.90;99.90;;;;;;5073006;28;19964;-70
2023/10/20 02:59:54;;;;;;;;;;;11.80;99.90;;;;;;5072961;28;19927;-71
2023/10/20 03:02:21;;;;;;;;;;;11.80;99.90;;;;;;5074247;28;19920;-71
2023/10/20 03:04:47;;;;;;;;;;;11.80;99.90;;;;;;5072020;28;19956;-71
2023/10/20 03:07:15;;;;;;;;;;;11.80;99.90;;;;;;5082518;28;20158;-69
2023/10/20 03:09:42;;;;;;;;;;;11.80;99.90;;;;;;5075729;28;19920;-71
2023/10/20 03:12:08;;;;;;;;;;;11.90;99.90;;;;;;5075500;28;19927;-70
2023/10/20 03:14:36;;;;;;;;;;;11.80;99.90;;;;;;5072217;28;20000;-71
2023/10/20 03:17:03;;;;;;;;;;;11.90;99.90;;;;;;5075407;28;19999;-70
2023/10/20 03:19:30;;;;;;;;;;;11.80;99.90;;;;;;5074943;28;19967;-72
2023/10/20 03:21:57;;;;;;;;;;;11.80;99.90;;;;;;5077530;28;20174;-71
2023/10/20 03:24:25;;;;;;;;;;;11.80;99.90;;;;;;5072828;28;19958;-71
2023/10/20 03:26:52;;;;;;;;;;;11.80;99.90;;;;;;5076753;28;19952;-71
2023/10/20 03:29:19;;;;;;;;;;;11.80;99.90;;;;;;5078758;28;19928;-71
2023/10/20 03:31:45;;;;;;;;;;;11.80;99.90;;;;;;5075623;28;19927;-71
2023/10/20 03:34:12;;;;;;;;;;;11.70;99.90;;;;;;5074459;28;19925;-71
2023/10/20 03:36:38;;;;;;;;;;;11.70;99.90;;;;;;5071630;28;19943;-71
2023/10/20 03:39:14;;;;;;;;;;;11.70;99.90;;;;;;5074515;28;19928;-71
2023/10/20 03:41:42;;;;;;;;;;;11.70;99.90;;;;;;5077890;28;19928;-71
2023/10/20 03:44:09;;;;;;;;;;;11.70;99.90;;;;;;5080350;28;19935;-71
2023/10/20 03:46:43;;;;;;;;;;;11.60;99.90;;;;;;5075546;28;19988;-71
2023/10/20 03:49:10;;;;;;;;;;;11.60;99.90;;;;;;5075861;28;19920;-71
2023/10/20 03:51:37;;;;;;;;;;;11.70;99.90;;;;;;5079434;28;19928;-71
2023/10/20 03:54:05;;;;;;;;;;;11.70;99.90;;;;;;5075164;28;19927;-70
2023/10/20 03:56:34;;;;;;;;;;;11.70;99.90;;;;;;5065935;28;19962;-69
2023/10/20 03:59:02;;;;;;;;;;;11.60;99.90;;;;;;5074364;28;19979;-71
2023/10/20 04:01:29;;;;;;;;;;;11.70;99.90;;;;;;5071578;28;20234;-71
2023/10/20 04:03:56;;;;;;;;;;;11.60;99.90;;;;;;5073462;28;19963;-71
2023/10/20 04:06:23;;;;;;;;;;;11.60;99.90;;;;;;5072136;28;19979;-71
2023/10/20 04:08:49;;;;;;;;;;;11.50;99.90;;;;;;5075421;28;19988;-71
2023/10/20 04:11:16;;;;;;;;;;;11.60;99.90;;;;;;5073532;28;19966;-70
2023/10/20 04:13:43;;;;;;;;;;;11.50;99.90;;;;;;5071233;28;20218;-71
2023/10/20 04:16:13;;;;;;;;;;;11.50;99.90;;;;;;5072906;28;20229;-70
2023/10/20 04:18:39;;;;;;;;;;;11.50;99.90;;;;;;5071260;28;19925;-71
2023/10/20 04:21:06;;;;;;;;;;;11.50;99.90;;;;;;5073333;28;19988;-71
2023/10/20 04:23:33;;;;;;;;;;;11.50;99.90;;;;;;5069741;28;19920;-71
2023/10/20 04:26:00;;;;;;;;;;;11.50;99.90;;;;;;5084849;28;20125;-71
2023/10/20 04:28:32;;;;;;;;;;;11.50;99.90;;;;;;5071300;28;20020;-70
2023/10/20 04:42:17;;;;;;;;;;;11.40;99.90;;;;;;5083182;28;19923;-71
2023/10/20 04:50:59;;;;;;;;;;;11.40;99.90;;;;;;5072691;28;19924;-70
2023/10/20 04:53:45;;;;;;;;;;;11.30;99.90;;;;;;5069015;28;19921;-71
2023/10/20 04:56:32;;;;;;;;;;;11.30;99.90;;;;;;5074157;28;19923;-71
2023/10/20 04:59:04;;;;;;;;;;;11.30;99.90;;;;;;5072837;28;19953;-71
2023/10/20 05:01:40;;;;;;;;;;;11.20;99.90;;;;;;5070271;28;20339;-71
2023/10/20 05:04:14;;;;;;;;;;;11.30;99.90;;;;;;5073989;28;19926;-70
2023/10/20 05:06:44;;;;;;;;;;;11.30;99.90;;;;;;5069713;28;19936;-71
2023/10/20 05:09:14;;;;;;;;;;;11.30;99.90;;;;;;5068691;28;19937;-71
2023/10/20 05:11:40;;;;;;;;;;;11.30;99.90;;;;;;5070295;28;19983;-72
2023/10/20 05:14:07;;;;;;;;;;;11.30;99.90;;;;;;5072183;28;19972;-72
2023/10/20 05:16:34;;;;;;;;;;;11.20;99.90;;;;;;5073638;28;19921;-70
2023/10/20 05:19:03;;;;;;;;;;;11.20;99.90;;;;;;5075862;28;19920;-71
2023/10/20 05:21:33;;;;;;;;;;;11.20;99.90;;;;;;5072128;28;20198;-75
2023/10/20 05:24:04;;;;;;;;;;;11.30;99.90;;;;;;5072903;28;20187;-71
2023/10/20 05:26:31;;;;;;;;;;;11.30;99.90;;;;;;5069540;28;19920;-71
2023/10/20 05:28:58;;;;;;;;;;;11.30;99.90;;;;;;5075204;28;19921;-71
2023/10/20 05:31:25;;;;;;;;;;;11.30;99.90;;;;;;5070513;28;19956;-70
2023/10/20 05:33:51;;;;;;;;;;;11.20;99.90;;;;;;5076225;28;19952;-72
2023/10/20 05:36:18;;;;;;;;;;;11.20;99.90;;;;;;5077782;28;20214;-70
2023/10/20 05:38:45;;;;;;;;;;;11.20;99.90;;;;;;5070194;28;19947;-73
2023/10/20 05:41:13;;;;;;;;;;;11.20;99.90;;;;;;5071977;28;19988;-71
2023/10/20 05:43:41;;;;;;;;;;;11.20;99.90;;;;;;5069427;28;19957;-70
2023/10/20 05:46:13;;;;;;;;;;;11.20;99.90;;;;;;5072962;28;19924;-71
2023/10/20 05:48:40;;;;;;;;;;;11.20;99.90;;;;;;5069859;28;20179;-71
2023/10/20 05:51:06;;;;;;;;;;;11.20;99.90;;;;;;5073175;28;19921;-71
2023/10/20 05:53:33;;;;;;;;;;;11.20;99.90;;;;;;5069494;28;19991;-70
2023/10/20 05:56:00;;;;;;;;;;;11.20;99.90;;;;;;5071423;28;19983;-71
2023/10/20 05:58:28;;;;;;;;;;;11.20;99.90;;;;;;5069801;28;20209;-71
2023/10/20 06:00:55;;;;;;;;;;;11.30;99.90;;;;;;5079708;28;20228;-71
2023/10/20 06:03:22;;;;;;;;;;;11.30;99.90;;;;;;5083967;28;19988;-71
2023/10/20 06:05:49;;;;;;;;;;;11.30;99.90;;;;;;5081909;28;20206;-73
2023/10/20 06:08:15;;;;;;;;;;;11.30;99.90;;;;;;5082298;28;19920;-71
2023/10/20 06:10:44;;;;;;;;;;;11.30;99.90;;;;;;5077505;28;19928;-71
2023/10/20 06:13:11;;;;;;;;;;;11.30;99.90;;;;;;5082172;28;19962;-71
2023/10/20 06:15:39;;;;;;;;;;;11.30;99.90;;;;;;5074045;28;19952;-71
2023/10/20 06:18:06;;;;;;;;;;;11.30;99.90;;;;;;5082567;28;19981;-71
2023/10/20 06:20:32;;;;;;;;;;;11.30;99.90;;;;;;5082158;28;19984;-71
2023/10/20 06:22:59;;;;;;;;;;;11.30;99.90;;;;;;5082440;28;20175;-71
2023/10/20 06:25:25;;;;;;;;;;;11.30;99.90;;;;;;5081175;28;19920;-71
2023/10/20 06:27:52;;;;;;;;;;;11.30;99.90;;;;;;5082334;28;19966;-71
2023/10/20 06:30:22;;;;;;;;;;;11.30;99.90;;;;;;5082047;28;19920;-79
2023/10/20 06:35:34;;;;;;;;;;;11.30;99.90;;;;;;5076056;28;20210;-72
2023/10/20 06:38:13;;;;;;;;;;;11.30;99.90;;;;;;5080394;28;19962;-72
2023/10/20 06:40:40;;;;;;;;;;;11.40;99.90;;;;;;5078834;28;19983;-72
2023/10/20 06:43:07;;;;;;;;;;;11.40;99.90;;;;;;5080488;28;19932;-71
2023/10/20 06:45:34;;;;;;;;;;;11.40;99.90;;;;;;5080820;28;19948;-72
2023/10/20 06:48:02;;;;;;;;;;;11.40;99.90;;;;;;5081879;28;19943;-71
2023/10/20 06:50:28;;;;;;;;;;;11.40;99.90;;;;;;5082303;28;20170;-71
2023/10/20 06:52:55;;;;;;;;;;;11.40;99.90;;;;;;5079207;28;20000;-71
2023/10/20 06:55:22;;;;;;;;;;;11.40;99.90;;;;;;5084845;28;19920;-71
2023/10/20 06:57:48;;;;;;;;;;;11.40;99.90;;;;;;5076468;28;19932;-71
2023/10/20 07:00:17;;;;;;;;;;;11.40;99.90;;;;;;5083785;28;19948;-72
2023/10/20 07:02:44;;;;;;;;;;;11.30;99.90;;;;;;5085863;28;19933;-71
2023/10/20 07:05:12;;;;;;;;;;;11.40;99.90;;;;;;5085362;28;20194;-72
2023/10/20 07:07:39;;;;;;;;;;;11.40;99.90;;;;;;5085287;28;19966;-72
2023/10/20 07:10:10;;;;;;;;;;;11.40;99.90;;;;;;5085286;28;19921;-72
2023/10/20 07:12:36;;;;;;;;;;;11.50;99.90;;;;;;5085261;28;19956;-71
2023/10/20 07:15:05;;;;;;;;;;;11.50;99.90;;;;;;5084384;28;19928;-72
2023/10/20 07:17:32;;;;;;;;;;;11.50;99.90;;;;;;5080250;28;19983;-71
2023/10/20 07:19:59;;;;;;;;;;;11.50;99.90;;;;;;5085336;28;19987;-72
2023/10/20 07:22:28;;;;;;;;;;;11.60;99.90;;;;;;5084986;28;20214;-71
2023/10/20 07:24:55;;;;;;;;;;;11.60;99.90;;;;;;5084580;28;20412;-71
2023/10/20 07:27:22;;;;;;;;;;;11.60;99.90;;;;;;5084597;28;19988;-71
2023/10/20 07:29:48;;;;;;;;;;;11.60;99.90;;;;;;5084556;28;20174;-71
2023/10/20 07:32:15;;;;;;;;;;;11.70;99.90;;;;;;5084683;28;19983;-71
2023/10/20 07:34:42;;;;;;;;;;;11.70;99.90;;;;;;5070160;28;20053;-71
2023/10/20 07:37:08;;;;;;;;;;;11.70;99.90;;;;;;5083060;28;20095;-71
2023/10/20 07:39:37;;;;;;;;;;;11.80;99.90;;;;;;5084568;28;19966;-71
2023/10/20 07:42:04;;;;;;;;;;;11.80;99.90;;;;;;5079894;28;20121;-71
2023/10/20 07:44:32;;;;;;;;;;;11.90;99.90;;;;;;5084720;28;19921;-71
2023/10/20 07:46:58;;;;;;;;;;;11.80;99.90;;;;;;5083958;28;19952;-71
2023/10/20 07:49:25;;;;;;;;;;;11.90;99.90;;;;;;5084463;28;20160;-72
2023/10/20 07:51:52;;;;;;;;;;;11.90;99.90;;;;;;5084365;28;19979;-71
2023/10/20 07:54:20;;;;;;;;;;;11.90;99.90;;;;;;5083759;28;19992;-71
2023/10/20 07:56:48;;;;;;;;;;;11.90;99.90;;;;;;5084049;28;19921;-71
2023/10/20 07:59:14;;;;;;;;;;;11.80;99.90;;;;;;5084194;28;19951;-72
2023/10/20 08:01:41;;;;;;;;;;;12.00;99.90;;;;;;5083236;28;19929;-72
2023/10/20 08:04:08;;;;;;;;;;;12.00;99.90;;;;;;5082513;28;20300;-71
2023/10/20 08:06:34;;;;;;;;;;;12.10;99.90;;;;;;5083740;28;19928;-72
2023/10/20 08:09:02;;;;;;;;;;;12.10;99.90;;;;;;5082666;28;19924;-72
2023/10/20 08:11:29;;;;;;;;;;;12.10;99.90;;;;;;5083968;28;20224;-72
2023/10/20 08:13:57;;;;;;;;;;;12.10;99.90;;;;;;5083768;28;19992;-72
2023/10/20 08:16:24;;;;;;;;;;;12.10;99.90;;;;;;5083722;28;19921;-71
2023/10/20 08:18:51;;;;;;;;;;;12.20;99.90;;;;;;5083345;28;19983;-72
2023/10/20 08:21:19;;;;;;;;;;;12.20;99.90;;;;;;5083827;28;19921;-71
2023/10/20 08:23:46;;;;;;;;;;;12.30;99.90;;;;;;5083556;28;19920;-74
2023/10/20 08:26:16;;;;;;;;;;;12.40;99.90;;;;;;5082785;28;19936;-72
2023/10/20 08:28:43;;;;;;;;;;;12.40;99.90;;;;;;5083536;28;19920;-71
2023/10/20 08:31:13;;;;;;;;;;;12.40;99.90;;;;;;5083764;28;19984;-72
2023/10/20 08:33:39;;;;;;;;;;;12.50;99.90;;;;;;5083376;28;20141;-72
2023/10/20 08:36:11;;;;;;;;;;;12.40;99.90;;;;;;5082707;28;19992;-71
2023/10/20 08:38:37;;;;;;;;;;;12.50;99.90;;;;;;5079360;28;19973;-71
2023/10/20 08:41:08;;;;;;;;;;;12.50;99.90;;;;;;5082747;28;19960;-72
2023/10/20 08:43:35;;;;;;;;;;;12.50;99.90;;;;;;5083791;28;20170;-72
2023/10/20 08:46:02;;;;;;;;;;;12.50;99.90;;;;;;5082301;28;19964;-71
2023/10/20 08:48:31;;;;;;;;;;;12.60;99.90;;;;;;5080698;28;19927;-71
2023/10/20 08:50:59;;;;;;;;;;;12.70;99.90;;;;;;5080039;28;19951;-72
2023/10/20 08:53:27;;;;;;;;;;;12.70;99.90;;;;;;5082513;28;19996;-71
2023/10/20 08:55:53;;;;;;;;;;;12.80;99.90;;;;;;5087144;28;19955;-71
2023/10/20 08:58:21;;;;;;;;;;;12.90;99.90;;;;;;5082606;28;19979;-71
2023/10/20 09:00:47;;;;;;;;;;;12.90;99.90;;;;;;5079993;28;20207;-71
2023/10/20 09:03:14;;;;;;;;;;;12.90;99.90;;;;;;5087838;28;19983;-72
2023/10/20 09:05:42;;;;;;;;;;;12.90;99.90;;;;;;5081934;28;19991;-71
2023/10/20 09:08:08;;;;;;;;;;;13.00;99.90;;;;;;5082699;28;19920;-71
2023/10/20 09:10:35;;;;;;;;;;;13.00;99.90;;;;;;5083012;28;20158;-71
2023/10/20 09:13:02;;;;;;;;;;;13.00;99.90;;;;;;5082431;28;20164;-71
2023/10/20 09:15:30;;;;;;;;;;;13.00;99.90;;;;;;5081827;28;19921;-71
2023/10/20 09:17:56;;;;;;;;;;;13.00;99.90;;;;;;5081014;28;19927;-71
2023/10/20 09:20:23;;;;;;;;;;;13.00;99.90;;;;;;5081690;28;19951;-71
2023/10/20 09:22:51;;;;;;;;;;;13.10;99.90;;;;;;5081128;28;19920;-72
2023/10/20 09:25:18;;;;;;;;;;;13.10;99.90;;;;;;5076796;28;19952;-71
2023/10/20 09:27:46;;;;;;;;;;;13.10;99.90;;;;;;5067267;28;19929;-71
2023/10/20 09:30:13;;;;;;;;;;;13.10;99.90;;;;;;5064002;28;20264;-71
2023/10/20 09:32:39;;;;;;;;;;;13.10;99.90;;;;;;5069074;28;19952;-71
2023/10/20 09:35:06;;;;;;;;;;;13.10;99.90;;;;;;5070057;28;19927;-71
2023/10/20 09:37:35;;;;;;;;;;;13.10;99.90;;;;;;5063275;28;20005;-71
2023/10/20 09:40:06;;;;;;;;;;;13.10;99.90;;;;;;5070514;28;20228;-71
2023/10/20 09:42:37;;;;;;;;;;;13.10;99.90;;;;;;5063627;28;19924;-71
2023/10/20 09:45:06;;;;;;;;;;;13.10;99.90;;;;;;5074630;28;19921;-70
2023/10/20 09:47:35;;;;;;;;;;;13.20;99.90;;;;;;5064755;28;20028;-71
2023/10/20 09:50:02;;;;;;;;;;;13.10;99.90;;;;;;5071749;28;20273;-71
2023/10/20 09:52:29;;;;;;;;;;;13.20;99.90;;;;;;5069361;28;19947;-71
2023/10/20 09:54:56;;;;;;;;;;;13.20;99.90;;;;;;5069000;28;19927;-70
2023/10/20 09:57:26;;;;;;;;;;;13.20;99.90;;;;;;5070300;28;19963;-71
2023/10/20 09:59:53;;;;;;;;;;;13.30;99.90;;;;;;5070062;28;19921;-75
2023/10/20 10:02:27;;;;;;;;;;;13.30;99.90;;;;;;5070728;28;20103;-72
2023/10/20 10:04:54;;;;;;;;;;;13.30;99.90;;;;;;5073313;28;19921;-72
2023/10/20 10:07:26;;;;;;;;;;;13.30;99.90;;;;;;5070944;28;19921;-77
2023/10/20 10:09:55;;;;;;;;;;;13.30;99.90;;;;;;5070287;28;20211;-71
2023/10/20 10:12:22;;;;;;;;;;;13.30;99.90;;;;;;5067707;28;20117;-71
2023/10/20 10:14:55;;;;;;;;;;;13.30;99.90;;;;;;5069978;28;19958;-71
2023/10/20 10:17:22;;;;;;;;;;;13.30;99.90;;;;;;5067897;28;19963;-71
2023/10/20 10:19:50;;;;;;;;;;;13.20;99.90;;;;;;5069828;28;19921;-71
2023/10/20 10:22:17;;;;;;;;;;;13.20;99.90;;;;;;5067885;28;19924;-71
2023/10/20 10:24:48;;;;;;;;;;;13.20;99.90;;;;;;5072427;28;20260;-73
2023/10/20 10:27:16;;;;;;;;;;;13.20;99.90;;;;;;5071371;28;20253;-71
2023/10/20 10:29:47;;;;;;;;;;;13.20;99.90;;;;;;5072921;28;19921;-71
2023/10/20 10:32:15;;;;;;;;;;;13.10;99.90;;;;;;5075562;28;19955;-72
2023/10/20 10:34:44;;;;;;;;;;;13.20;99.90;;;;;;5072748;28;20018;-72
2023/10/20 10:37:11;;;;;;;;;;;13.30;99.90;;;;;;5073543;28;19956;-72
2023/10/20 10:39:38;;;;;;;;;;;13.30;99.90;;;;;;5073077;28;19952;-71
2023/10/20 10:42:05;;;;;;;;;;;13.40;99.90;;;;;;5075723;28;20274;-71
2023/10/20 10:44:33;;;;;;;;;;;13.50;99.90;;;;;;5075688;28;19963;-71
2023/10/20 10:46:59;;;;;;;;;;;13.50;99.90;;;;;;5073283;28;19928;-70
2023/10/20 10:49:27;;;;;;;;;;;13.60;99.90;;;;;;5073379;28;19983;-71
2023/10/20 10:51:55;;;;;;;;;;;13.60;99.90;;;;;;5074394;28;19992;-71
2023/10/20 10:54:23;;;;;;;;;;;13.70;99.90;;;;;;5073380;28;20418;-72
2023/10/20 10:56:50;;;;;;;;;;;13.70;99.90;;;;;;5071782;28;19920;-72
2023/10/20 10:59:19;;;;;;;;;;;13.80;99.90;;;;;;5074426;28;19983;-71
2023/10/20 11:01:46;;;;;;;;;;;13.80;99.90;;;;;;5072321;28;20142;-70
2023/10/20 11:04:13;;;;;;;;;;;13.80;99.90;;;;;;5079305;28;19959;-71
2023/10/20 11:06:41;;;;;;;;;;;13.90;99.90;;;;;;5071496;28;19983;-71
2023/10/20 11:09:10;;;;;;;;;;;14.00;99.90;;;;;;5071349;28;19963;-71
2023/10/20 11:11:42;;;;;;;;;;;14.00;99.90;;;;;;5076385;28;20229;-71
2023/10/20 11:14:09;;;;;;;;;;;14.10;99.90;;;;;;5075980;28;19991;-71
2023/10/20 11:16:37;;;;;;;;;;;14.10;99.90;;;;;;5070255;28;19944;-70
2023/10/20 11:19:03;;;;;;;;;;;14.20;99.90;;;;;;5074583;28;19928;-71
2023/10/20 11:21:31;;;;;;;;;;;14.30;99.90;;;;;;5072448;28;19927;-71
2023/10/20 11:23:59;;;;;;;;;;;14.40;99.90;;;;;;5081308;28;19920;-70
2023/10/20 11:26:26;;;;;;;;;;;14.50;99.90;;;;;;5071976;28;19955;-71
2023/10/20 11:28:53;;;;;;;;;;;14.60;99.90;;;;;;5077817;28;20117;-71
2023/10/20 11:31:20;;;;;;;;;;;14.70;99.90;;;;;;5073552;28;19962;-70
2023/10/20 11:33:46;;;;;;;;;;;14.80;99.90;;;;;;5071920;28;20133;-71
2023/10/20 11:36:13;;;;;;;;;;;15.00;99.90;;;;;;5074058;28;19983;-70
2023/10/20 11:38:40;;;;;;;;;;;15.10;99.90;;;;;;5071429;28;19928;-71
2023/10/20 11:41:08;;;;;;;;;;;15.10;99.90;;;;;;5075074;28;19928;-70
2023/10/20 11:43:37;;;;;;;;;;;15.20;99.90;;;;;;5071524;28;19956;-71
2023/10/20 11:46:05;;;;;;;;;;;15.20;99.90;;;;;;5088947;28;19920;-71
2023/10/20 11:48:31;;;;;;;;;;;15.20;99.90;;;;;;5084446;28;19920;-71
2023/10/20 11:50:58;;;;;;;;;;;15.30;99.90;;;;;;5077353;28;19991;-71
2023/10/20 11:53:25;;;;;;;;;;;15.40;99.90;;;;;;5077000;28;19931;-72
2023/10/20 11:55:52;;;;;;;;;;;15.40;99.90;;;;;;5089866;28;20193;-71
2023/10/20 11:58:20;;;;;;;;;;;15.50;99.90;;;;;;5084240;28;19920;-71
2023/10/20 12:00:46;;;;;;;;;;;15.50;99.90;;;;;;5084113;28;19927;-71
2023/10/20 12:03:14;;;;;;;;;;;15.60;99.90;;;;;;5083975;28;20276;-70
2023/10/20 12:05:42;;;;;;;;;;;15.60;99.90;;;;;;5083245;28;19958;-70
2023/10/20 12:08:08;;;;;;;;;;;15.70;99.90;;;;;;5080592;28;19928;-72
2023/10/20 12:10:35;;;;;;;;;;;15.80;99.90;;;;;;5084459;28;19944;-69
2023/10/20 12:13:04;;;;;;;;;;;15.80;99.90;;;;;;5084527;28;19958;-71
2023/10/20 12:15:32;;;;;;;;;;;15.90;99.90;;;;;;5082904;28;19974;-71
2023/10/20 12:17:58;;;;;;;;;;;15.90;99.90;;;;;;5084239;28;19928;-72
2023/10/20 12:20:25;;;;;;;;;;;16.00;99.90;;;;;;5084221;28;19956;-71
2023/10/20 12:22:55;;;;;;;;;;;16.00;99.90;;;;;;5083944;28;19959;-73
2023/10/20 12:25:21;;;;;;;;;;;16.10;99.90;;;;;;5069065;28;19974;-70
2023/10/20 12:27:48;;;;;;;;;;;16.00;99.90;;;;;;5071369;28;19980;-70
2023/10/20 12:30:15;;;;;;;;;;;16.10;99.90;;;;;;5073068;28;19928;-72
2023/10/20 12:32:43;;;;;;;;;;;16.10;99.90;;;;;;5070349;28;20271;-71
2023/10/20 12:35:11;;;;;;;;;;;16.10;99.90;;;;;;5071543;28;19999;-71
2023/10/20 12:37:37;;;;;;;;;;;16.10;99.90;;;;;;5069768;28;20238;-71
2023/10/20 12:40:05;;;;;;;;;;;16.20;99.90;;;;;;5073304;28;19920;-71
2023/10/20 12:42:32;;;;;;;;;;;16.30;99.90;;;;;;5069975;28;19921;-72
2023/10/20 12:45:00;;;;;;;;;;;16.40;99.90;;;;;;5071687;28;19984;-71
2023/10/20 12:47:27;;;;;;;;;;;16.50;99.90;;;;;;5070725;28;19991;-71
2023/10/20 12:49:55;;;;;;;;;;;16.60;99.90;;;;;;5071728;28;20233;-71
2023/10/20 12:52:22;;;;;;;;;;;16.60;99.90;;;;;;5075359;28;20218;-73
2023/10/20 12:54:50;;;;;;;;;;;16.70;99.90;;;;;;5070797;28;19971;-71
2023/10/20 12:57:17;;;;;;;;;;;16.80;99.90;;;;;;5076083;28;19920;-71
2023/10/20 12:59:44;;;;;;;;;;;16.90;99.90;;;;;;5070110;28;20210;-72
2023/10/20 13:02:10;;;;;;;;;;;17.00;99.90;;;;;;5072405;28;19967;-72
2023/10/20 13:04:37;;;;;;;;;;;17.10;99.90;;;;;;5073144;28;20000;-71
2023/10/20 13:07:06;;;;;;;;;;;17.20;99.90;;;;;;5072384;28;19970;-71
2023/10/20 13:09:32;;;;;;;;;;;17.30;99.90;;;;;;5063216;28;19921;-70
2023/10/20 13:11:59;;;;;;;;;;;17.40;99.90;;;;;;5072099;28;20223;-71
2023/10/20 13:14:25;;;;;;;;;;;17.60;99.90;;;;;;5073804;28;19983;-71
2023/10/20 13:16:52;;;;;;;;;;;17.90;99.90;;;;;;5071335;28;19959;-72
2023/10/20 13:19:19;;;;;;;;;;;18.30;99.90;;;;;;5070531;28;20414;-71
2023/10/20 13:21:45;;;;;;;;;;;18.70;99.90;;;;;;5070551;28;19936;-71
2023/10/20 13:24:13;;;;;;;;;;;19.10;99.90;;;;;;5071994;28;20229;-72
2023/10/20 13:26:40;;;;;;;;;;;19.30;99.90;;;;;;5073123;28;19955;-72
2023/10/20 13:29:07;;;;;;;;;;;19.30;99.90;;;;;;5074917;28;19964;-72
2023/10/20 13:31:34;;;;;;;;;;;19.10;99.90;;;;;;5064733;28;19988;-72
2023/10/20 13:34:02;;;;;;;;;;;19.00;99.90;;;;;;5071870;28;20400;-71
2023/10/20 13:36:28;;;;;;;;;;;18.90;99.90;;;;;;5072432;28;19964;-71
2023/10/20 13:38:55;;;;;;;;;;;18.90;99.90;;;;;;5071471;28;20174;-72
2023/10/20 13:41:24;;;;;;;;;;;18.90;99.90;;;;;;5069696;28;19929;-71
2023/10/20 13:43:51;;;;;;;;;;;19.10;99.90;;;;;;5070591;28;19921;-71
2023/10/20 13:46:18;;;;;;;;;;;19.20;99.90;;;;;;5069790;28;19934;-70
2023/10/20 13:48:44;;;;;;;;;;;19.20;99.90;;;;;;5073104;28;19921;-71
2023/10/20 13:51:11;;;;;;;;;;;19.00;99.90;;;;;;5071957;28;20163;-71
2023/10/20 13:53:37;;;;;;;;;;;18.90;99.90;;;;;;5070423;28;19984;-70
2023/10/20 13:56:04;;;;;;;;;;;18.80;99.90;;;;;;5071016;28;19952;-70
2023/10/20 13:58:32;;;;;;;;;;;18.70;99.90;;;;;;5069098;28;19991;-71
2023/10/20 14:00:59;;;;;;;;;;;18.40;99.90;;;;;;5071076;28;19984;-71
2023/10/20 14:03:26;;;;;;;;;;;18.30;99.90;;;;;;5069250;28;19979;-71
2023/10/20 14:05:54;;;;;;;;;;;18.10;99.90;;;;;;5069776;28;19921;-70
2023/10/20 14:08:21;;;;;;;;;;;18.10;99.90;;;;;;5068447;28;19983;-71
2023/10/20 14:10:48;;;;;;;;;;;18.00;99.90;;;;;;5067487;28;19999;-71
2023/10/20 14:13:15;;;;;;;;;;;18.00;99.90;;;;;;5070936;28;19966;-68
2023/10/20 14:15:44;;;;;;;;;;;17.90;99.90;;;;;;5066680;28;20241;-71
2023/10/20 14:18:11;;;;;;;;;;;17.90;99.90;;;;;;5072615;28;19928;-71
2023/10/20 14:20:39;;;;;;;;;;;17.80;99.90;;;;;;5071489;28;19925;-71
2023/10/20 14:23:05;;;;;;;;;;;17.80;99.90;;;;;;5074542;28;20145;-71
2023/10/20 14:25:32;;;;;;;;;;;17.70;99.90;;;;;;5058998;28;20153;-71
2023/10/20 14:27:59;;;;;;;;;;;17.70;99.90;;;;;;5074981;28;19971;-71
2023/10/20 14:30:25;;;;;;;;;;;17.70;99.90;;;;;;5077956;28;19921;-72
2023/10/20 14:32:53;;;;;;;;;;;17.60;99.90;;;;;;5069740;28;20291;-71
2023/10/20 14:35:20;;;;;;;;;;;17.60;99.90;;;;;;5066771;28;19964;-71
2023/10/20 14:37:46;;;;;;;;;;;17.50;99.90;;;;;;5069182;28;19921;-72